Time;durP1;ratioP1;P1;durP2;ratioP2;P2;SDS_P1;SDS_P2;PMS_P1;PMS_P2;Temp;Humidity;BMP_temperature;BMP_pressure;BME280_temperature;BME280_humidity;BME280_pressure;Samples;Min_cycle;Max_cycle;Signal;HPM_P1;HPM_P2
2023/01/29 00:01:40;;;;;;;5.50;4.90;;;;;;;0.44;96.09;99199.81;5074744;28;20231;-70
2023/01/29 00:04:07;;;;;;;6.53;4.93;;;;;;;0.37;94.52;99205.69;5073797;28;20212;-70
2023/01/29 00:06:33;;;;;;;5.80;5.00;;;;;;;0.33;96.40;99208.56;5072405;28;20683;-70
2023/01/29 00:09:00;;;;;;;5.37;4.87;;;;;;;0.38;94.66;99209.00;5074150;28;20207;-70
2023/01/29 00:11:26;;;;;;;6.13;5.53;;;;;;;0.38;95.86;99206.38;5073856;28;20219;-70
2023/01/29 00:13:53;;;;;;;6.03;4.93;;;;;;;0.51;94.87;99211.44;5073359;28;20283;-70
2023/01/29 00:16:20;;;;;;;5.53;5.03;;;;;;;0.36;93.57;99207.47;5074341;28;20211;-71
2023/01/29 00:18:46;;;;;;;6.97;5.17;;;;;;;0.51;93.66;99216.69;5074710;28;20270;-70
2023/01/29 00:21:15;;;;;;;5.60;5.10;;;;;;;0.47;93.71;99210.03;5074643;28;20204;-71
2023/01/29 00:23:42;;;;;;;6.67;4.70;;;;;;;0.39;94.17;99202.00;5074378;28;20567;-71
2023/01/29 00:26:09;;;;;;;7.27;5.00;;;;;;;0.40;94.11;99211.50;5074619;28;20204;-70
2023/01/29 00:28:36;;;;;;;5.67;5.13;;;;;;;0.55;93.71;99209.41;5074464;28;20207;-70
2023/01/29 00:31:14;;;;;;;7.83;5.43;;;;;;;0.39;95.75;99209.84;5074373;28;20212;-71
2023/01/29 00:33:40;;;;;;;5.50;5.00;;;;;;;0.28;94.87;99214.31;5074447;28;20200;-71
2023/01/29 00:36:09;;;;;;;5.53;5.03;;;;;;;0.30;95.77;99208.00;5074308;28;20211;-71
2023/01/29 00:38:36;;;;;;;5.70;5.10;;;;;;;0.32;95.73;99201.69;5073899;28;20220;-71
2023/01/29 00:46:39;;;;;;;5.13;4.63;;;;;;;0.48;94.24;99196.00;5074156;28;20176;-70
2023/01/29 00:49:07;;;;;;;4.80;4.37;;;;;;;0.38;93.34;99202.97;5074699;28;20208;-71
2023/01/29 00:51:34;;;;;;;5.63;4.40;;;;;;;0.33;93.70;99200.72;5073669;28;20299;-71
2023/01/29 00:54:00;;;;;;;5.23;4.73;;;;;;;0.38;92.85;99203.78;5073694;28;20204;-71
2023/01/29 00:56:28;;;;;;;4.60;4.20;;;;;;;0.51;92.72;99197.53;5073969;28;20293;-71
2023/01/29 00:58:55;;;;;;;6.47;5.13;;;;;;;0.61;92.65;99198.41;5073612;28;20602;-71
2023/01/29 01:04:03;;;;;;;5.37;4.87;;;;;;;0.40;92.44;99211.50;5073258;28;20207;-71
2023/01/29 01:06:29;;;;;;;6.60;4.70;;;;;;;0.62;92.18;99202.72;5073553;28;20216;-70
2023/01/29 01:11:45;;;;;;;5.47;4.40;;;;;;;0.55;91.12;99204.16;5034746;28;20225;-71
2023/01/29 01:14:11;;;;;;;5.60;5.10;;;;;;;0.38;94.59;99192.50;5073640;28;20189;-70
2023/01/29 01:16:38;;;;;;;6.27;4.77;;;;;;;0.37;93.72;99206.53;5073771;28;20208;-71
2023/01/29 01:19:04;;;;;;;5.20;4.27;;;;;;;0.55;91.25;99214.63;5073617;28;20220;-70
2023/01/29 01:21:32;;;;;;;4.93;4.40;;;;;;;0.32;93.09;99199.06;5073301;28;20224;-71
2023/01/29 01:23:58;;;;;;;5.37;4.93;;;;;;;0.28;94.66;99195.03;5073666;28;20204;-71
2023/01/29 01:26:24;;;;;;;6.83;5.23;;;;;;;0.39;93.07;99204.63;5073676;28;20204;-70
2023/01/29 01:28:51;;;;;;;5.23;4.70;;;;;;;0.46;93.26;99194.47;5073197;28;20668;-70
2023/01/29 01:31:17;;;;;;;5.43;4.90;;;;;;;0.28;93.53;99193.38;5073185;28;20737;-71
2023/01/29 01:33:44;;;;;;;7.10;5.50;;;;;;;0.21;96.11;99184.41;5073620;28;20293;-71
2023/01/29 01:36:10;;;;;;;5.50;4.73;;;;;;;0.22;94.82;99195.56;5073529;28;20204;-70
2023/01/29 01:38:43;;;;;;;6.37;5.40;;;;;;;0.22;94.34;99191.28;5073433;28;20240;-71
2023/01/29 01:41:09;;;;;;;6.90;4.93;;;;;;;0.24;94.88;99198.84;5073562;28;20551;-71
2023/01/29 01:43:57;;;;;;;5.73;4.97;;;;;;;0.30;94.16;99192.28;5073449;28;20208;-71
2023/01/29 01:46:35;;;;;;;5.40;4.90;;;;;;;0.24;94.74;99195.44;5073217;28;20189;-70
2023/01/29 01:49:08;;;;;;;4.87;4.30;;;;;;;0.23;93.05;99191.16;5073079;28;20211;-70
2023/01/29 01:51:39;;;;;;;6.87;5.27;;;;;;;0.38;94.26;99189.03;5073348;28;20231;-70
2023/01/29 01:54:09;;;;;;;5.30;4.80;;;;;;;0.22;93.21;99186.88;5071909;28;20192;-70
2023/01/29 01:56:42;;;;;;;6.40;5.17;;;;;;;0.22;93.22;99186.88;5073295;28;20211;-70
2023/01/29 01:59:12;;;;;;;5.60;5.00;;;;;;;0.26;93.14;99187.47;5071615;28;20208;-70
2023/01/29 02:01:41;;;;;;;5.70;5.10;;;;;;;0.23;92.88;99197.19;5073630;28;20238;-70
2023/01/29 02:10:15;;;;;;;6.73;5.47;;;;;;;0.23;94.25;99194.59;5077235;28;20172;-70
2023/01/29 02:12:43;;;;;;;5.93;5.33;;;;;;;0.28;94.10;99196.84;5076798;28;20235;-70
2023/01/29 02:15:10;;;;;;;7.87;4.63;;;;;;;0.32;92.81;99202.63;5077045;28;20211;-70
2023/01/29 02:17:37;;;;;;;7.07;4.93;;;;;;;0.39;90.85;99199.38;5077007;28;20204;-70
2023/01/29 02:20:24;;;;;;;5.97;4.80;;;;;;;0.23;93.79;99189.34;5076626;28;20224;-70
2023/01/29 02:23:15;;;;;;;5.10;4.60;;;;;;;0.24;93.31;99198.84;5077363;28;20228;-70
2023/01/29 02:26:04;;;;;;;5.67;5.10;;;;;;;0.09;94.44;99192.28;5076887;28;20193;-70
2023/01/29 02:29:24;;;;;;;6.10;5.33;;;;;;;0.12;92.63;99201.66;5076567;28;20185;-70
2023/01/29 02:32:08;;;;;;;5.60;4.70;;;;;;;0.26;92.97;99213.63;5076374;28;20259;-70
2023/01/29 02:37:41;;;;;;;5.57;5.07;;;;;;;0.21;94.02;99194.88;5075541;28;20221;-70
2023/01/29 02:40:19;;;;;;;5.33;4.83;;;;;;;0.15;94.20;99196.19;5076556;28;20580;-71
2023/01/29 02:43:08;;;;;;;5.23;4.73;;;;;;;0.16;94.29;99190.00;5075312;28;20229;-71
2023/01/29 02:46:01;;;;;;;6.77;5.30;;;;;;;0.08;93.50;99203.72;5076437;28;20196;-70
2023/01/29 02:48:37;;;;;;;5.33;4.60;;;;;;;0.12;94.24;99195.63;5077008;28;20184;-70
2023/01/29 02:51:21;;;;;;;5.67;5.00;;;;;;;0.08;92.90;99201.09;5076380;28;20199;-70
2023/01/29 02:54:03;;;;;;;5.33;4.83;;;;;;;0.06;92.79;99196.94;5076445;28;20193;-70
2023/01/29 02:56:42;;;;;;;4.83;4.33;;;;;;;0.09;94.61;99186.22;5076388;28;20553;-70
2023/01/29 02:59:16;;;;;;;7.63;4.90;;;;;;;0.04;94.33;99186.59;5075166;28;20220;-70
2023/01/29 03:01:49;;;;;;;5.67;5.17;;;;;;;0.08;93.76;99188.03;5075881;28;20708;-71
2023/01/29 03:04:24;;;;;;;6.80;4.93;;;;;;;0.18;92.76;99186.28;5076169;28;20199;-70
2023/01/29 03:07:08;;;;;;;6.57;4.73;;;;;;;0.00;92.49;99187.00;5076683;28;20192;-70
2023/01/29 03:09:44;;;;;;;6.67;4.47;;;;;;;0.02;92.78;99190.31;5076099;28;20189;-70
2023/01/29 03:12:27;;;;;;;7.37;4.90;;;;;;;-0.14;93.12;99185.50;5074679;28;20235;-70
2023/01/29 03:15:13;;;;;;;9.00;4.80;;;;;;;-0.23;93.24;99207.16;5074653;28;20189;-70
2023/01/29 03:18:00;;;;;;;4.93;4.53;;;;;;;-0.19;92.88;99192.03;5074994;28;20189;-70
2023/01/29 03:20:35;;;;;;;8.03;4.50;;;;;;;-0.17;93.35;99192.75;5076433;28;20213;-70
2023/01/29 03:23:09;;;;;;;5.37;4.50;;;;;;;-0.18;93.13;99194.53;5075477;28;20600;-70
2023/01/29 03:34:08;;;;;;;5.00;4.40;;;;;;;-0.05;92.24;99196.97;5075540;28;20176;-71
2023/01/29 03:36:48;;;;;;;5.40;4.50;;;;;;;-0.10;92.77;99199.97;5076181;28;20197;-71
2023/01/29 03:39:16;;;;;;;5.30;4.80;;;;;;;-0.16;92.55;99191.81;5075736;28;20665;-70
2023/01/29 03:41:53;;;;;;;5.00;4.60;;;;;;;-0.16;92.22;99195.25;5075494;28;20220;-70
2023/01/29 03:44:53;;;;;;;5.30;4.77;;;;;;;-0.15;92.60;99183.84;5075450;28;20196;-70
2023/01/29 03:47:22;;;;;;;6.47;4.83;;;;;;;-0.17;92.13;99183.13;5074430;28;20189;-71
2023/01/29 03:50:16;;;;;;;5.57;5.07;;;;;;;-0.15;92.42;99189.06;5075518;28;20211;-71
2023/01/29 03:53:02;;;;;;;5.20;4.70;;;;;;;-0.12;92.94;99191.41;5075198;28;20232;-70
2023/01/29 03:55:44;;;;;;;5.67;4.87;;;;;;;-0.21;92.68;99192.16;5075168;28;20265;-71
2023/01/29 03:58:19;;;;;;;5.70;4.77;;;;;;;-0.09;92.65;99193.78;5074851;28;20667;-71
2023/01/29 04:00:56;;;;;;;5.23;4.73;;;;;;;-0.10;92.28;99193.91;5075210;28;20192;-71
2023/01/29 04:03:33;;;;;;;6.07;4.50;;;;;;;-0.16;91.64;99190.03;5074989;28;20224;-70
2023/01/29 04:06:09;;;;;;;5.10;4.27;;;;;;;-0.04;92.01;99183.78;5074947;28;20559;-70
2023/01/29 04:08:49;;;;;;;5.27;4.73;;;;;;;-0.11;92.12;99200.94;5074881;28;20188;-71
2023/01/29 04:11:19;;;;;;;5.73;4.93;;;;;;;-0.04;93.14;99204.69;5074784;28;20256;-70
2023/01/29 04:13:46;;;;;;;6.00;4.80;;;;;;;-0.05;92.35;99200.44;5074364;28;20235;-70
2023/01/29 04:16:19;;;;;;;5.43;4.90;;;;;;;0.00;91.27;99197.47;5074676;28;20212;-71
2023/01/29 04:18:47;;;;;;;8.63;5.03;;;;;;;-0.11;92.41;99190.47;5074438;28;20213;-70
2023/01/29 04:21:15;;;;;;;6.60;4.50;;;;;;;-0.05;92.01;99194.34;5073309;28;20204;-71
2023/01/29 04:23:41;;;;;;;5.00;4.50;;;;;;;-0.05;92.28;99200.44;5074250;28;20209;-70
2023/01/29 04:26:26;;;;;;;5.57;4.30;;;;;;;-0.08;90.52;99199.84;5074214;28;20204;-71
2023/01/29 04:28:59;;;;;;;6.57;4.97;;;;;;;-0.12;92.25;99198.44;5074581;28;20195;-70
2023/01/29 04:31:34;;;;;;;5.97;5.00;;;;;;;-0.26;92.55;99196.94;5074446;28;20278;-70
2023/01/29 04:34:06;;;;;;;6.40;4.43;;;;;;;-0.20;92.00;99200.84;5073838;28;20270;-70
2023/01/29 04:36:54;;;;;;;5.60;5.10;;;;;;;-0.14;92.55;99198.56;5074366;28;20200;-71
2023/01/29 04:39:31;;;;;;;6.67;4.83;;;;;;;-0.18;92.11;99199.75;5073850;28;20706;-70
2023/01/29 04:42:15;;;;;;;5.70;4.63;;;;;;;-0.01;91.77;99190.53;5056927;28;20715;-70
2023/01/29 04:44:59;;;;;;;5.53;4.33;;;;;;;0.02;90.08;99190.31;5056372;28;20648;-70
2023/01/29 04:47:58;;;;;;;5.23;4.73;;;;;;;0.01;90.82;99186.03;5073781;28;20192;-70
2023/01/29 04:50:35;;;;;;;5.03;4.53;;;;;;;-0.08;91.37;99192.81;5073892;28;20537;-70
2023/01/29 04:53:10;;;;;;;5.97;5.27;;;;;;;-0.10;91.38;99191.28;5073802;28;20224;-70
2023/01/29 04:56:00;;;;;;;7.07;4.57;;;;;;;-0.13;91.01;99197.59;5073469;28;20591;-70
2023/01/29 04:58:39;;;;;;;7.70;5.10;;;;;;;-0.17;92.26;99204.03;5072730;28;20188;-71
2023/01/29 05:01:10;;;;;;;6.73;4.80;;;;;;;-0.21;92.72;99202.63;5073888;28;20189;-71
2023/01/29 05:03:40;;;;;;;6.47;4.47;;;;;;;-0.08;91.43;99199.84;5073623;28;20191;-70
2023/01/29 05:06:09;;;;;;;5.60;4.70;;;;;;;-0.14;91.74;99201.19;5072626;28;20207;-70
2023/01/29 05:08:39;;;;;;;6.77;5.20;;;;;;;-0.34;92.88;99201.13;5072371;28;20456;-70
2023/01/29 05:11:05;;;;;;;5.83;5.23;;;;;;;-0.25;91.48;99193.38;5073428;28;20205;-70
2023/01/29 05:13:36;;;;;;;5.67;5.03;;;;;;;-0.40;91.55;99199.81;5073026;28;20213;-70
2023/01/29 05:16:16;;;;;;;5.50;4.87;;;;;;;-0.38;92.70;99205.78;5072152;28;20199;-70
2023/01/29 05:18:43;;;;;;;5.77;4.93;;;;;;;-0.29;92.19;99198.97;5073625;28;20199;-71
2023/01/29 05:21:09;;;;;;;5.17;4.67;;;;;;;-0.23;91.69;99198.47;5073603;28;20201;-70
2023/01/29 05:23:36;;;;;;;7.90;4.63;;;;;;;-0.16;91.38;99197.88;5073559;28;20204;-70
2023/01/29 05:26:04;;;;;;;8.47;5.47;;;;;;;-0.16;91.36;99199.66;5073626;28;20204;-70
2023/01/29 05:28:29;;;;;;;7.10;5.10;;;;;;;-0.09;90.52;99216.50;5073653;28;20204;-70
2023/01/29 05:30:57;;;;;;;6.90;5.10;;;;;;;-0.22;90.17;99213.22;5073352;28;20581;-70
2023/01/29 05:33:29;;;;;;;5.90;5.10;;;;;;;-0.28;90.25;99214.53;5073458;28;20209;-70
2023/01/29 05:35:58;;;;;;;12.53;5.33;;;;;;;-0.41;91.41;99213.84;5073954;28;20540;-70
2023/01/29 05:38:24;;;;;;;6.53;5.17;;;;;;;-0.60;92.02;99212.81;5073050;28;20205;-70
2023/01/29 05:40:51;;;;;;;5.10;4.60;;;;;;;-0.43;91.17;99210.53;5073340;28;20229;-71
2023/01/29 05:43:23;;;;;;;6.97;5.93;;;;;;;-0.52;92.43;99206.03;5073321;28;20225;-71
2023/01/29 05:45:57;;;;;;;5.93;5.33;;;;;;;-0.42;92.01;99204.34;5073325;28;20197;-71
2023/01/29 05:48:26;;;;;;;6.43;5.23;;;;;;;-0.61;92.49;99198.94;5073335;28;20429;-70
2023/01/29 05:50:53;;;;;;;6.87;5.70;;;;;;;-0.53;93.65;99178.25;5072956;28;20205;-71
2023/01/29 05:53:19;;;;;;;6.77;5.67;;;;;;;-0.53;94.79;99167.78;5073230;28;20231;-70
2023/01/29 05:55:48;;;;;;;6.63;5.17;;;;;;;-0.46;93.48;99162.91;5073335;28;20212;-70
2023/01/29 05:58:15;;;;;;;6.70;5.07;;;;;;;-0.40;94.08;99158.03;5073249;28;20208;-71
2023/01/29 06:00:41;;;;;;;6.93;5.37;;;;;;;-0.34;95.13;99149.72;5073678;28;20229;-71
2023/01/29 06:03:08;;;;;;;7.03;4.80;;;;;;;-0.40;93.79;99159.84;5072896;28;20251;-71
2023/01/29 06:05:38;;;;;;;6.13;5.13;;;;;;;-0.37;92.72;99163.00;5073455;28;20200;-71
2023/01/29 06:08:04;;;;;;;6.30;4.87;;;;;;;-0.47;92.73;99174.31;5073168;28;20204;-70
2023/01/29 06:10:31;;;;;;;6.27;5.17;;;;;;;-0.32;92.10;99173.91;5072830;28;20571;-71
2023/01/29 06:12:57;;;;;;;6.13;5.60;;;;;;;-0.23;90.86;99169.72;5072658;28;20240;-71
2023/01/29 06:15:25;;;;;;;6.00;4.83;;;;;;;-0.36;93.10;99169.91;5072751;28;20204;-71
2023/01/29 06:17:53;;;;;;;6.40;4.70;;;;;;;-0.25;92.32;99182.94;5073111;28;20211;-71
2023/01/29 06:20:20;;;;;;;8.30;5.10;;;;;;;-0.36;91.94;99182.97;5073037;28;20230;-71
2023/01/29 06:22:46;;;;;;;5.67;4.77;;;;;;;-0.31;92.18;99178.19;5072660;28;20229;-70
2023/01/29 06:25:13;;;;;;;5.33;4.83;;;;;;;-0.25;92.08;99179.47;5072732;28;20212;-70
2023/01/29 06:27:39;;;;;;;6.27;4.70;;;;;;;-0.39;93.47;99185.84;5072783;28;20679;-70
2023/01/29 06:30:06;;;;;;;6.33;4.90;;;;;;;-0.21;92.47;99188.75;5073065;28;20220;-70
2023/01/29 06:32:33;;;;;;;5.63;5.10;;;;;;;-0.38;90.58;99176.19;5072923;28;20225;-70
2023/01/29 06:34:59;;;;;;;6.30;4.50;;;;;;;-0.25;90.23;99182.94;5072698;28;20209;-70
2023/01/29 06:37:25;;;;;;;6.10;4.70;;;;;;;-0.37;90.62;99191.75;5072590;28;20204;-70
2023/01/29 06:39:52;;;;;;;6.17;5.03;;;;;;;-0.29;91.10;99183.28;5072374;28;20695;-70
2023/01/29 06:42:19;;;;;;;6.70;4.90;;;;;;;-0.38;91.24;99184.88;5072397;28;20776;-71
2023/01/29 06:44:45;;;;;;;5.70;5.10;;;;;;;-0.46;91.90;99189.03;5072497;28;20660;-71
2023/01/29 06:47:12;;;;;;;5.10;4.60;;;;;;;-0.42;92.22;99191.28;5072803;28;20201;-70
2023/01/29 06:49:38;;;;;;;5.77;4.70;;;;;;;-0.49;92.56;99181.47;5076210;28;20196;-71
2023/01/29 06:52:04;;;;;;;5.57;4.97;;;;;;;-0.46;91.48;99186.41;5076344;28;20227;-70
2023/01/29 06:54:31;;;;;;;5.30;4.47;;;;;;;-0.36;93.33;99182.16;5076336;28;20204;-70
2023/01/29 06:56:57;;;;;;;5.17;4.63;;;;;;;-0.41;91.66;99186.88;5076036;28;20215;-70
2023/01/29 06:59:24;;;;;;;6.10;4.93;;;;;;;-0.47;91.88;99193.44;5075896;28;20220;-70
2023/01/29 07:01:50;;;;;;;6.00;5.40;;;;;;;-0.45;91.94;99191.53;5075945;28;20231;-70
2023/01/29 07:04:16;;;;;;;5.80;5.20;;;;;;;-0.39;94.02;99191.06;5076192;28;20205;-71
2023/01/29 07:06:43;;;;;;;5.23;4.70;;;;;;;-0.39;91.76;99201.50;5076011;28;20244;-70
2023/01/29 07:09:12;;;;;;;6.13;5.23;;;;;;;-0.34;91.23;99203.75;5075750;28;20219;-71
2023/01/29 07:11:38;;;;;;;5.60;4.90;;;;;;;-0.34;92.27;99201.13;5075901;28;20224;-70
2023/01/29 07:14:05;;;;;;;8.87;5.17;;;;;;;-0.34;92.04;99194.13;5075920;28;20231;-70
2023/01/29 07:16:31;;;;;;;7.77;4.70;;;;;;;-0.27;92.27;99187.44;5075498;28;20682;-70
2023/01/29 07:18:58;;;;;;;6.73;5.40;;;;;;;-0.13;92.06;99195.00;5075511;28;20211;-70
2023/01/29 07:21:24;;;;;;;5.83;5.23;;;;;;;-0.11;90.97;99206.16;5075678;28;20262;-71
2023/01/29 07:23:51;;;;;;;5.43;4.93;;;;;;;-0.27;90.32;99203.13;5076202;28;20205;-70
2023/01/29 07:26:17;;;;;;;5.67;5.07;;;;;;;-0.32;92.30;99205.28;5075554;28;20208;-70
2023/01/29 07:28:43;;;;;;;6.97;5.10;;;;;;;-0.40;92.05;99207.66;5075741;28;20205;-70
2023/01/29 07:31:13;;;;;;;6.13;4.87;;;;;;;-0.43;91.13;99218.38;5075574;28;20200;-71
2023/01/29 07:33:39;;;;;;;5.43;4.93;;;;;;;-0.38;91.04;99207.53;5075269;28;20580;-70
2023/01/29 07:36:10;;;;;;;6.47;5.20;;;;;;;-0.02;89.25;99212.41;5075653;28;20204;-70
2023/01/29 07:38:36;;;;;;;5.90;5.10;;;;;;;-0.08;90.19;99216.34;5075433;28;20207;-70
2023/01/29 07:41:02;;;;;;;5.47;4.90;;;;;;;-0.17;90.61;99224.13;5075303;28;20224;-70
2023/01/29 07:43:29;;;;;;;6.77;5.37;;;;;;;-0.09;92.65;99227.75;5075063;28;20717;-70
2023/01/29 07:45:55;;;;;;;6.07;4.67;;;;;;;-0.04;90.24;99225.59;5075355;28;20207;-71
2023/01/29 07:48:22;;;;;;;5.70;5.00;;;;;;;-0.19;90.09;99231.25;5075258;28;20204;-71
2023/01/29 07:50:56;;;;;;;6.80;5.30;;;;;;;0.14;90.10;99225.91;5075248;28;20438;-71
2023/01/29 07:53:23;;;;;;;5.73;5.20;;;;;;;0.12;88.75;99232.22;5075130;28;20208;-70
2023/01/29 07:55:50;;;;;;;6.93;5.10;;;;;;;0.05;88.85;99231.91;5075097;28;20214;-70
2023/01/29 07:58:16;;;;;;;6.83;5.70;;;;;;;0.05;88.76;99237.94;5075161;28;20573;-70
2023/01/29 08:00:43;;;;;;;7.50;5.43;;;;;;;0.12;89.20;99238.25;5074334;28;20244;-70
2023/01/29 08:03:14;;;;;;;5.37;4.87;;;;;;;0.09;89.72;99241.13;5075429;28;20236;-71
2023/01/29 08:05:41;;;;;;;6.60;5.30;;;;;;;-0.01;91.50;99240.22;5075011;28;20193;-70
2023/01/29 08:08:08;;;;;;;6.73;5.30;;;;;;;0.18;88.85;99233.38;5074825;28;20563;-71
2023/01/29 08:10:36;;;;;;;6.47;5.07;;;;;;;-0.07;89.06;99236.34;5074966;28;20228;-70
2023/01/29 08:13:03;;;;;;;6.50;5.63;;;;;;;-0.11;90.50;99229.69;5074362;28;20235;-70
2023/01/29 08:15:30;;;;;;;8.03;5.60;;;;;;;-0.03;91.04;99234.28;5074534;28;20213;-71
2023/01/29 08:17:57;;;;;;;6.20;5.30;;;;;;;-0.01;89.02;99233.22;5074814;28;20216;-70
2023/01/29 08:20:24;;;;;;;6.50;5.33;;;;;;;0.27;88.20;99234.38;5074414;28;20685;-70
2023/01/29 08:22:58;;;;;;;6.50;5.13;;;;;;;0.06;90.19;99244.81;5074475;28;20250;-70
2023/01/29 08:25:24;;;;;;;6.37;5.03;;;;;;;0.17;89.89;99250.97;5075186;28;20210;-70
2023/01/29 08:27:51;;;;;;;6.33;5.63;;;;;;;0.22;90.60;99254.03;5075089;28;20211;-71
2023/01/29 08:30:17;;;;;;;5.70;5.10;;;;;;;0.38;87.75;99254.44;5074430;28;20204;-70
2023/01/29 08:32:44;;;;;;;6.13;5.13;;;;;;;0.32;87.84;99254.94;5074350;28;20224;-70
2023/01/29 08:35:10;;;;;;;7.13;5.37;;;;;;;0.24;88.07;99248.53;5075095;28;20214;-70
2023/01/29 08:37:36;;;;;;;6.47;5.23;;;;;;;0.28;88.36;99250.91;5074160;28;20204;-70
2023/01/29 08:40:03;;;;;;;7.57;6.30;;;;;;;0.21;89.30;99249.78;5073547;28;20217;-70
2023/01/29 08:42:29;;;;;;;8.97;5.63;;;;;;;0.38;87.98;99250.03;5074020;28;20228;-71
2023/01/29 08:44:56;;;;;;;7.80;5.70;;;;;;;0.34;89.16;99259.09;5074039;28;20208;-70
2023/01/29 08:47:22;;;;;;;7.17;5.93;;;;;;;0.58;88.26;99269.34;5073927;28;20204;-70
2023/01/29 08:49:48;;;;;;;8.23;5.77;;;;;;;0.58;86.13;99269.34;5074028;28;20208;-70
2023/01/29 08:52:15;;;;;;;7.67;5.73;;;;;;;0.69;85.66;99262.25;5073664;28;20311;-70
2023/01/29 08:54:41;;;;;;;8.80;5.77;;;;;;;0.60;86.70;99257.78;5073933;28;20219;-70
2023/01/29 08:57:07;;;;;;;7.37;5.53;;;;;;;0.47;86.40;99253.66;5073634;28;20212;-70
2023/01/29 08:59:34;;;;;;;6.30;5.33;;;;;;;0.55;87.82;99265.19;5073538;28;20663;-70
2023/01/29 09:02:00;;;;;;;6.70;5.87;;;;;;;0.56;86.42;99266.00;5073488;28;20741;-70
2023/01/29 09:04:26;;;;;;;6.33;5.70;;;;;;;0.57;88.10;99265.03;5073692;28;20204;-71
2023/01/29 09:06:53;;;;;;;7.87;5.77;;;;;;;0.34;88.92;99264.31;5073780;28;20205;-71
2023/01/29 09:09:19;;;;;;;8.30;6.33;;;;;;;0.67;88.22;99256.28;5073680;28;20206;-70
2023/01/29 09:11:45;;;;;;;8.53;6.07;;;;;;;0.80;86.97;99269.22;5072564;28;20227;-70
2023/01/29 09:14:13;;;;;;;13.30;5.77;;;;;;;0.66;87.06;99274.72;5073736;28;20613;-71
2023/01/29 09:16:39;;;;;;;6.93;5.83;;;;;;;0.88;88.18;99274.59;5073796;28;20200;-70
2023/01/29 09:19:07;;;;;;;6.53;5.37;;;;;;;0.97;86.44;99273.84;5073690;28;20204;-70
2023/01/29 09:21:33;;;;;;;7.93;5.47;;;;;;;0.98;85.56;99268.47;5073109;28;20591;-70
2023/01/29 09:23:59;;;;;;;6.10;5.50;;;;;;;1.13;84.56;99268.97;5073594;28;20216;-70
2023/01/29 09:26:26;;;;;;;7.20;5.73;;;;;;;0.87;86.08;99272.94;5073415;28;20200;-71
2023/01/29 09:28:52;;;;;;;6.67;6.03;;;;;;;0.98;85.89;99278.13;5073196;28;20234;-70
2023/01/29 09:31:18;;;;;;;8.57;6.33;;;;;;;1.04;85.35;99278.41;5072986;28;20227;-70
2023/01/29 09:33:45;;;;;;;6.43;5.43;;;;;;;1.18;82.78;99282.50;5073480;28;20205;-70
2023/01/29 09:36:11;;;;;;;7.00;5.20;;;;;;;0.71;83.88;99278.63;5073402;28;20204;-70
2023/01/29 09:38:38;;;;;;;6.30;5.70;;;;;;;0.56;84.94;99279.91;5072982;28;20204;-71
2023/01/29 09:41:07;;;;;;;8.47;5.93;;;;;;;0.66;84.01;99267.72;5073523;28;20675;-70
2023/01/29 09:44:02;;;;;;;11.97;6.60;;;;;;;0.93;82.76;99277.66;5073291;28;20208;-70
2023/01/29 09:46:44;;;;;;;7.57;5.13;;;;;;;0.67;82.94;99264.16;5072202;28;20694;-70
2023/01/29 09:49:17;;;;;;;5.77;5.27;;;;;;;0.76;82.53;99262.56;5073558;28;20215;-70
2023/01/29 09:51:49;;;;;;;6.40;5.80;;;;;;;0.67;82.83;99255.47;5072887;28;20228;-70
2023/01/29 09:54:22;;;;;;;6.20;5.60;;;;;;;0.79;84.51;99241.34;5072653;28;20536;-70
2023/01/29 09:56:53;;;;;;;6.73;5.83;;;;;;;0.38;83.42;99230.88;5073165;28;20189;-70
2023/01/29 09:59:23;;;;;;;6.23;5.63;;;;;;;0.57;82.31;99226.63;5072679;28;20640;-70
2023/01/29 10:02:01;;;;;;;7.33;5.70;;;;;;;0.98;82.67;99216.09;5072591;28;20231;-70
2023/01/29 10:04:50;;;;;;;8.23;6.20;;;;;;;1.30;82.10;99213.34;5072790;28;20573;-70
2023/01/29 10:07:24;;;;;;;7.37;6.67;;;;;;;1.68;82.37;99213.44;5072830;28;20636;-70
2023/01/29 10:10:22;;;;;;;6.97;6.27;;;;;;;1.77;80.27;99213.47;5072998;28;20192;-70
2023/01/29 10:13:03;;;;;;;8.07;6.63;;;;;;;1.69;82.30;99202.00;5072711;28;20236;-71
2023/01/29 10:15:39;;;;;;;7.87;6.13;;;;;;;1.87;79.41;99202.97;5073017;28;20564;-71
2023/01/29 10:18:37;;;;;;;8.00;6.47;;;;;;;1.86;82.38;99194.31;5072770;28;20188;-71
2023/01/29 10:21:31;;;;;;;9.97;6.57;;;;;;;1.87;79.12;99195.13;5072994;28;20209;-71
2023/01/29 10:24:22;;;;;;;9.63;6.60;;;;;;;1.87;78.98;99200.34;5075361;28;20188;-71
2023/01/29 10:26:50;;;;;;;7.37;6.53;;;;;;;2.24;77.53;99204.78;5075118;28;20656;-71
2023/01/29 10:29:20;;;;;;;8.53;6.57;;;;;;;2.07;77.55;99217.78;5076597;28;20222;-71
2023/01/29 10:31:53;;;;;;;8.83;6.90;;;;;;;1.80;78.30;99218.44;5076561;28;20221;-71
2023/01/29 10:34:30;;;;;;;9.20;6.30;;;;;;;2.44;76.02;99218.72;5076519;28;20548;-71
2023/01/29 10:36:56;;;;;;;7.70;6.87;;;;;;;1.96;77.74;99210.03;5076658;28;20195;-71
2023/01/29 10:39:25;;;;;;;7.90;6.93;;;;;;;2.22;77.72;99205.91;5076524;28;20204;-71
2023/01/29 10:42:07;;;;;;;7.10;6.50;;;;;;;2.34;76.63;99202.19;5076312;28;20228;-71
2023/01/29 10:44:58;;;;;;;9.63;6.57;;;;;;;1.88;76.77;99205.47;5076235;28;20210;-71
2023/01/29 10:47:46;;;;;;;7.33;6.63;;;;;;;1.77;77.27;99217.88;5076076;28;20635;-71
2023/01/29 10:50:24;;;;;;;8.17;7.30;;;;;;;1.73;78.72;99214.72;5076029;28;20216;-71
2023/01/29 10:53:03;;;;;;;7.77;7.07;;;;;;;1.90;78.88;99208.78;5076262;28;20247;-71
2023/01/29 10:55:41;;;;;;;7.33;6.63;;;;;;;1.78;77.33;99201.19;5075868;28;20192;-71
2023/01/29 10:58:22;;;;;;;7.20;6.50;;;;;;;1.94;79.63;99206.72;5076105;28;20196;-71
2023/01/29 11:00:49;;;;;;;7.60;6.87;;;;;;;1.90;78.13;99203.53;5076048;28;20212;-71
2023/01/29 11:03:26;;;;;;;8.43;7.53;;;;;;;2.37;76.38;99200.09;5075614;28;20234;-71
2023/01/29 11:06:03;;;;;;;7.40;6.70;;;;;;;2.38;75.88;99203.53;5076551;28;20242;-71
2023/01/29 11:08:43;;;;;;;7.37;6.67;;;;;;;2.73;74.47;99206.38;5076073;28;20215;-71
2023/01/29 11:11:16;;;;;;;7.87;7.07;;;;;;;2.32;74.73;99204.09;5074529;28;20180;-71
2023/01/29 11:13:59;;;;;;;9.93;7.40;;;;;;;2.55;74.89;99201.03;5075665;28;20212;-71
2023/01/29 11:16:32;;;;;;;7.53;6.83;;;;;;;2.26;76.40;99199.41;5075588;28;20199;-71
2023/01/29 11:19:01;;;;;;;8.77;7.23;;;;;;;2.37;75.95;99197.47;5075121;28;20632;-71
2023/01/29 11:21:29;;;;;;;8.17;7.37;;;;;;;2.66;74.34;99192.97;5075328;28;20233;-71
2023/01/29 11:24:05;;;;;;;12.80;8.00;;;;;;;2.32;77.25;99191.81;5075377;28;20216;-71
2023/01/29 11:26:35;;;;;;;14.97;8.00;;;;;;;2.20;77.50;99178.97;5075577;28;20196;-71
2023/01/29 11:29:02;;;;;;;7.83;7.03;;;;;;;2.76;74.05;99177.22;5075259;28;20220;-70
2023/01/29 11:31:38;;;;;;;9.10;7.37;;;;;;;2.63;73.52;99166.19;5076033;28;20216;-71
2023/01/29 11:34:20;;;;;;;9.80;7.40;;;;;;;2.37;75.15;99159.88;5074818;28;20208;-71
2023/01/29 11:36:46;;;;;;;9.30;7.30;;;;;;;2.26;77.02;99157.44;5075080;28;20189;-71
2023/01/29 11:39:19;;;;;;;8.57;6.57;;;;;;;2.38;76.29;99166.78;5075225;28;20204;-71
2023/01/29 11:42:07;;;;;;;7.60;6.90;;;;;;;2.33;75.56;99158.50;5075200;28;20228;-71
2023/01/29 11:44:39;;;;;;;7.77;7.07;;;;;;;2.19;77.86;99151.06;5074937;28;20200;-71
2023/01/29 11:47:13;;;;;;;7.23;6.53;;;;;;;2.26;76.08;99152.19;5075012;28;20595;-71
2023/01/29 11:49:44;;;;;;;7.23;6.17;;;;;;;2.31;76.14;99155.22;5074878;28;20210;-71
2023/01/29 11:52:13;;;;;;;7.53;6.83;;;;;;;2.29;78.23;99162.38;5067907;28;20568;-71
2023/01/29 11:54:50;;;;;;;7.83;7.07;;;;;;;2.62;76.36;99151.41;5064999;28;20288;-71
2023/01/29 11:57:38;;;;;;;7.60;6.80;;;;;;;2.29;75.04;99162.38;5064779;28;20547;-71
2023/01/29 12:00:24;;;;;;;8.53;6.90;;;;;;;2.30;76.14;99151.75;5065677;28;20207;-71
2023/01/29 12:02:56;;;;;;;6.53;5.90;;;;;;;2.27;75.48;99144.19;5063370;28;20217;-71
2023/01/29 12:05:25;;;;;;;8.00;7.10;;;;;;;1.90;76.36;99137.16;5063724;28;20189;-71
2023/01/29 12:07:56;;;;;;;7.60;6.90;;;;;;;2.01;76.73;99129.13;5059727;28;20660;-69
2023/01/29 12:10:40;;;;;;;7.20;6.53;;;;;;;2.20;76.54;99118.63;5054766;28;20194;-71
2023/01/29 12:13:09;;;;;;;7.00;6.40;;;;;;;2.29;76.24;99110.75;5054436;28;20241;-70
2023/01/29 12:15:40;;;;;;;7.53;6.80;;;;;;;1.83;77.79;99101.97;5054823;28;20205;-71
2023/01/29 12:18:06;;;;;;;7.70;7.00;;;;;;;2.06;77.04;99106.78;5054668;28;20212;-71
2023/01/29 12:20:43;;;;;;;7.57;6.87;;;;;;;2.09;76.48;99089.94;5054174;28;20575;-71
2023/01/29 12:23:41;;;;;;;7.80;6.40;;;;;;;2.23;77.02;99094.75;5054384;28;20316;-71
2023/01/29 12:26:14;;;;;;;7.37;6.67;;;;;;;2.12;77.11;99089.66;5036610;28;20296;-70
2023/01/29 12:29:05;;;;;;;7.57;6.67;;;;;;;2.12;76.90;99077.34;5054076;28;20186;-70
2023/01/29 12:32:10;;;;;;;8.77;7.57;;;;;;;2.19;79.05;99067.97;5059320;28;20234;-71